Time,TemperatureF,DewpointF,PressureIn,WindDirection,WindDirectionDegrees,WindSpeedMPH,WindSpeedGustMPH,Humidity,HourlyPrecipIn,Conditions,Clouds,dailyrainin,SoftwareType,DateUTC
2013-04-11 00:03:00,42.0,40.0,29.82,ESE,105,6.0,12.0,94,0.01,,,0.07,,2013-04-11 04:03:00,
2013-04-11 00:13:00,42.0,40.0,29.84,East,101,5.0,12.0,94,0.01,,,0.07,,2013-04-11 04:13:00,
2013-04-11 00:22:00,42.0,40.0,29.84,East,101,5.0,12.0,94,0.01,,,0.07,,2013-04-11 04:22:00,
2013-04-11 00:33:00,42.0,40.0,29.83,ESE,113,3.0,13.0,94,0.01,,,0.07,,2013-04-11 04:33:00,
2013-04-11 00:42:00,42.0,40.0,29.83,ESE,113,3.0,13.0,94,0.01,,,0.07,,2013-04-11 04:42:00,
2013-04-11 00:52:00,42.0,41.0,29.85,ENE,66,3.0,9.0,95,0.02,,,0.08,,2013-04-11 04:52:00,
2013-04-11 01:02:00,42.0,41.0,29.86,ENE,74,3.0,11.0,95,0.05,,,0.12,,2013-04-11 05:02:00,
2013-04-11 01:13:00,42.0,41.0,29.86,ENE,74,3.0,11.0,95,0.05,,,0.12,,2013-04-11 05:13:00,
2013-04-11 01:22:00,42.0,41.0,29.85,NE,44,5.0,8.0,95,0.09,,,0.16,,2013-04-11 05:22:00,
2013-04-11 01:32:00,42.0,41.0,29.80,NE,39,6.0,9.0,95,0.16,,,0.23,,2013-04-11 05:32:00,
2013-04-11 01:42:00,42.0,41.0,29.80,NE,39,6.0,9.0,95,0.16,,,0.23,,2013-04-11 05:42:00,
2013-04-11 01:52:00,42.0,41.0,29.83,ENE,77,4.0,8.0,95,0.22,,,0.30,,2013-04-11 05:52:00,
2013-04-11 02:02:00,42.0,41.0,29.85,NNE,32,2.0,8.0,95,0.24,,,0.36,,2013-04-11 06:02:00,
2013-04-11 02:12:00,42.0,41.0,29.85,NNE,32,2.0,8.0,95,0.24,,,0.36,,2013-04-11 06:12:00,
2013-04-11 02:22:00,42.0,41.0,29.84,NNE,33,3.0,6.0,95,0.30,,,0.46,,2013-04-11 06:22:00,
2013-04-11 02:32:00,42.0,41.0,29.81,NE,49,5.0,9.0,95,0.37,,,0.60,,2013-04-11 06:32:00,
2013-04-11 02:42:00,42.0,41.0,29.81,NE,49,5.0,9.0,95,0.37,,,0.60,,2013-04-11 06:42:00,
2013-04-11 02:52:00,42.0,41.0,29.88,ESE,115,1.0,9.0,95,0.42,,,0.72,,2013-04-11 06:52:00,
2013-04-11 03:02:00,42.0,41.0,29.85,NE,47,2.0,8.0,95,0.52,,,0.88,,2013-04-11 07:02:00,
2013-04-11 03:12:00,42.0,41.0,29.85,NE,47,2.0,8.0,95,0.52,,,0.88,,2013-04-11 07:12:00,
2013-04-11 03:22:00,42.0,41.0,29.83,NNE,22,4.0,7.0,95,0.46,,,0.92,,2013-04-11 07:22:00,
2013-04-11 03:32:00,42.0,41.0,29.83,ENE,68,2.0,8.0,95,0.36,,,0.96,,2013-04-11 07:32:00,
2013-04-11 03:42:00,42.0,41.0,29.83,ENE,68,2.0,8.0,95,0.36,,,0.96,,2013-04-11 07:42:00,
2013-04-11 03:52:00,42.0,41.0,29.82,SE,131,4.0,7.0,95,0.24,,,0.98,,2013-04-11 07:52:00,
2013-04-11 04:03:00,42.0,41.0,29.80,NE,40,3.0,9.0,95,0.12,,,1.00,,2013-04-11 08:03:00,
2013-04-11 04:12:00,42.0,41.0,29.80,NE,40,3.0,9.0,95,0.12,,,1.00,,2013-04-11 08:12:00,
2013-04-11 04:22:00,42.0,40.0,29.81,NE,48,2.0,6.0,94,0.09,,,1.01,,2013-04-11 08:22:00,
2013-04-11 04:32:00,42.0,40.0,29.84,ENE,61,2.0,9.0,94,0.06,,,1.02,,2013-04-11 08:32:00,
2013-04-11 04:42:00,42.0,40.0,29.84,ENE,61,2.0,9.0,94,0.06,,,1.02,,2013-04-11 08:42:00,
2013-04-11 04:52:00,42.0,40.0,29.80,East,86,6.0,12.0,94,0.06,,,1.04,,2013-04-11 08:52:00,
2013-04-11 05:02:00,42.0,40.0,29.74,ESE,116,7.0,15.0,94,0.05,,,1.05,,2013-04-11 09:02:00,
2013-04-11 05:12:00,42.0,40.0,29.74,ESE,116,7.0,15.0,94,0.05,,,1.05,,2013-04-11 09:12:00,
2013-04-11 05:22:00,42.0,40.0,29.78,East,97,5.0,12.0,94,0.04,,,1.05,,2013-04-11 09:22:00,
2013-04-11 05:33:00,42.0,40.0,29.74,ESE,118,5.0,12.0,94,0.03,,,1.05,,2013-04-11 09:33:00,
2013-04-11 05:43:00,42.0,40.0,29.74,ESE,118,5.0,12.0,94,0.03,,,1.05,,2013-04-11 09:43:00,
2013-04-11 05:52:00,42.0,40.0,29.76,East,86,1.0,13.0,93,0.01,,,1.05,,2013-04-11 09:52:00,
2013-04-11 06:02:00,42.0,40.0,29.75,ESE,117,6.0,14.0,93,0.00,,,1.05,,2013-04-11 10:02:00,
2013-04-11 06:12:00,42.0,40.0,29.76,ESE,103,4.0,12.0,92,0.00,,,1.05,,2013-04-11 10:12:00,
2013-04-11 06:23:00,42.0,40.0,29.76,ESE,103,4.0,12.0,92,0.00,,,1.05,,2013-04-11 10:23:00,
2013-04-11 06:32:00,43.0,41.0,29.76,SSE,149,5.0,13.0,92,0.00,,,1.05,,2013-04-11 10:32:00,
2013-04-11 06:42:00,43.0,41.0,29.76,SSE,149,5.0,13.0,92,0.00,,,1.05,,2013-04-11 10:42:00,
2013-04-11 06:52:00,43.0,41.0,29.75,ESE,114,5.0,15.0,92,0.00,,,1.05,,2013-04-11 10:52:00,
2013-04-11 07:02:00,43.0,41.0,29.75,ESE,114,5.0,15.0,92,0.00,,,1.05,,2013-04-11 11:02:00,
2013-04-11 07:12:00,43.0,41.0,29.75,SE,130,4.0,15.0,92,0.00,,,1.05,,2013-04-11 11:12:00,
2013-04-11 07:23:00,43.0,41.0,29.74,NE,55,6.0,12.0,92,0.00,,,1.05,,2013-04-11 11:23:00,
2013-04-11 07:32:00,43.0,41.0,29.75,East,88,5.0,10.0,92,0.00,,,1.05,,2013-04-11 11:32:00,
2013-04-11 07:42:00,43.0,41.0,29.75,East,88,5.0,10.0,92,0.00,,,1.05,,2013-04-11 11:42:00,
2013-04-11 07:52:00,43.0,41.0,29.76,ENE,58,4.0,12.0,92,0.00,,,1.05,,2013-04-11 11:52:00,
2013-04-11 08:02:00,43.0,41.0,29.76,ESE,105,4.0,11.0,92,0.00,,,1.05,,2013-04-11 12:02:00,
2013-04-11 08:12:00,43.0,41.0,29.76,ESE,105,4.0,11.0,92,0.00,,,1.05,,2013-04-11 12:12:00,
2013-04-11 08:22:00,43.0,41.0,29.76,ESE,113,3.0,15.0,92,0.00,,,1.05,,2013-04-11 12:22:00,
2013-04-11 08:32:00,43.0,41.0,29.74,SE,131,4.0,9.0,91,0.00,,,1.05,,2013-04-11 12:32:00,
2013-04-11 08:42:00,43.0,41.0,29.74,SE,131,4.0,9.0,91,0.00,,,1.05,,2013-04-11 12:42:00,
2013-04-11 08:52:00,43.0,41.0,29.74,ESE,119,6.0,11.0,91,0.00,,,1.05,,2013-04-11 12:52:00,
2013-04-11 09:02:00,43.0,41.0,29.72,ENE,65,2.0,11.0,92,0.00,,,1.05,,2013-04-11 13:02:00,
2013-04-11 09:12:00,43.0,41.0,29.72,East,90,2.0,7.0,92,0.00,,,1.05,,2013-04-11 13:12:00,
2013-04-11 09:23:00,43.0,41.0,29.72,East,90,2.0,7.0,92,0.00,,,1.05,,2013-04-11 13:23:00,
2013-04-11 09:32:00,43.0,41.0,29.73,East,100,2.0,10.0,92,0.00,,,1.05,,2013-04-11 13:32:00,
2013-04-11 09:43:00,43.0,41.0,29.73,East,100,2.0,10.0,92,0.00,,,1.05,,2013-04-11 13:43:00,
2013-04-11 10:02:00,44.0,42.0,29.74,SE,142,3.0,9.0,92,0.00,,,1.05,,2013-04-11 14:02:00,
2013-04-11 10:12:00,44.0,42.0,29.74,SE,142,3.0,9.0,92,0.00,,,1.05,,2013-04-11 14:12:00,
2013-04-11 10:22:00,44.0,42.0,29.72,ESE,105,4.0,14.0,93,0.01,,,1.06,,2013-04-11 14:22:00,
2013-04-11 10:32:00,44.0,42.0,29.71,ESE,123,5.0,12.0,93,0.01,,,1.06,,2013-04-11 14:32:00,
2013-04-11 10:42:00,44.0,42.0,29.71,ESE,123,5.0,12.0,93,0.01,,,1.06,,2013-04-11 14:42:00,
2013-04-11 10:52:00,44.0,42.0,29.71,East,86,7.0,11.0,93,0.01,,,1.06,,2013-04-11 14:52:00,
2013-04-11 11:02:00,44.0,42.0,29.71,East,93,4.0,13.0,93,0.01,,,1.06,,2013-04-11 15:02:00,
2013-04-11 11:12:00,44.0,42.0,29.71,East,93,4.0,13.0,93,0.01,,,1.06,,2013-04-11 15:12:00,
2013-04-11 11:22:00,44.0,42.0,29.70,SE,130,5.0,13.0,94,0.00,,,1.06,,2013-04-11 15:22:00,
2013-04-11 11:32:00,44.0,42.0,29.70,ESE,123,7.0,14.0,93,0.00,,,1.06,,2013-04-11 15:32:00,
2013-04-11 11:43:00,44.0,42.0,29.70,ESE,123,7.0,14.0,93,0.00,,,1.06,,2013-04-11 15:43:00,
2013-04-11 11:52:00,44.0,42.0,29.70,ESE,108,5.0,16.0,93,0.01,,,1.07,,2013-04-11 15:52:00,
2013-04-11 12:02:00,44.0,42.0,29.70,East,101,6.0,14.0,93,0.01,,,1.07,,2013-04-11 16:02:00,
2013-04-11 12:12:00,44.0,42.0,29.70,East,101,6.0,14.0,93,0.01,,,1.07,,2013-04-11 16:12:00,
2013-04-11 12:23:00,44.0,42.0,29.70,SE,126,5.0,14.0,93,0.02,,,1.08,,2013-04-11 16:23:00,
2013-04-11 12:32:00,44.0,42.0,29.70,East,87,5.0,16.0,94,0.02,,,1.08,,2013-04-11 16:32:00,
2013-04-11 12:42:00,44.0,42.0,29.70,East,87,5.0,16.0,94,0.02,,,1.08,,2013-04-11 16:42:00,
2013-04-11 12:52:00,44.0,42.0,29.70,ESE,113,5.0,12.0,94,0.01,,,1.08,,2013-04-11 16:52:00,
2013-04-11 13:02:00,44.0,42.0,29.70,SE,133,4.0,11.0,94,0.01,,,1.08,,2013-04-11 17:02:00,
2013-04-11 13:12:00,44.0,42.0,29.70,SE,133,4.0,11.0,94,0.01,,,1.08,,2013-04-11 17:12:00,
2013-04-11 13:23:00,44.0,42.0,29.70,ENE,57,5.0,13.0,94,0.00,,,1.04,,2013-04-11 17:23:00,
2013-04-11 13:32:00,44.0,43.0,29.69,ESE,109,5.0,13.0,95,0.00,,,1.04,,2013-04-11 17:32:00,
2013-04-11 13:43:00,44.0,43.0,29.69,ESE,109,5.0,13.0,95,0.00,,,1.04,,2013-04-11 17:43:00,
2013-04-11 13:52:00,44.0,42.0,29.69,ESE,111,4.0,13.0,94,0.00,,,1.04,,2013-04-11 17:52:00,
2013-04-11 14:03:00,44.0,42.0,29.68,ESE,113,5.0,14.0,94,0.00,,,1.04,,2013-04-11 18:03:00,
2013-04-11 14:13:00,44.0,42.0,29.68,ESE,113,5.0,14.0,94,0.00,,,1.04,,2013-04-11 18:13:00,
2013-04-11 14:23:00,44.0,42.0,29.66,NE,46,3.0,15.0,94,0.00,,,1.04,,2013-04-11 18:23:00,
2013-04-11 14:33:00,44.0,42.0,29.65,ENE,75,5.0,14.0,94,0.02,,,1.06,,2013-04-11 18:33:00,
2013-04-11 14:42:00,44.0,42.0,29.65,ENE,75,5.0,14.0,94,0.02,,,1.06,,2013-04-11 18:42:00,
2013-04-11 14:52:00,44.0,42.0,29.65,East,88,7.0,13.0,94,0.04,,,1.08,,2013-04-11 18:52:00,
2013-04-11 15:03:00,44.0,42.0,29.65,East,79,4.0,12.0,94,0.04,,,1.08,,2013-04-11 19:03:00,
2013-04-11 15:14:00,44.0,42.0,29.65,East,79,4.0,12.0,94,0.04,,,1.08,,2013-04-11 19:14:00,
2013-04-11 15:22:00,44.0,42.0,29.67,SE,146,3.0,12.0,94,0.04,,,1.08,,2013-04-11 19:22:00,
2013-04-11 15:32:00,44.0,42.0,29.66,SE,133,4.0,12.0,94,0.02,,,1.08,,2013-04-11 19:32:00,
2013-04-11 15:43:00,44.0,42.0,29.66,SE,133,4.0,12.0,94,0.02,,,1.08,,2013-04-11 19:43:00,
2013-04-11 15:52:00,44.0,42.0,29.66,ESE,115,3.0,12.0,94,0.00,,,1.08,,2013-04-11 19:52:00,
2013-04-11 16:02:00,44.0,42.0,29.65,East,86,4.0,13.0,94,0.00,,,1.08,,2013-04-11 20:02:00,
2013-04-11 16:13:00,44.0,42.0,29.65,East,86,4.0,13.0,94,0.00,,,1.08,,2013-04-11 20:13:00,
2013-04-11 16:22:00,44.0,42.0,29.64,East,84,4.0,10.0,94,0.00,,,1.08,,2013-04-11 20:22:00,
2013-04-11 16:33:00,44.0,42.0,29.63,SE,124,5.0,13.0,94,0.00,,,1.08,,2013-04-11 20:33:00,
2013-04-11 16:42:00,44.0,42.0,29.63,SE,124,5.0,13.0,94,0.00,,,1.08,,2013-04-11 20:42:00,
2013-04-11 16:52:00,44.0,42.0,29.63,SE,132,5.0,10.0,94,0.00,,,1.08,,2013-04-11 20:52:00,
2013-04-11 17:02:00,44.0,42.0,29.63,ESE,116,3.0,11.0,94,0.00,,,1.08,,2013-04-11 21:02:00,
2013-04-11 17:12:00,44.0,42.0,29.63,ESE,116,3.0,11.0,94,0.00,,,1.08,,2013-04-11 21:12:00,
2013-04-11 17:22:00,44.0,42.0,29.64,SE,145,2.0,9.0,94,0.00,,,1.08,,2013-04-11 21:22:00,
2013-04-11 17:33:00,44.0,42.0,29.64,SE,136,3.0,11.0,94,0.00,,,1.08,,2013-04-11 21:33:00,
2013-04-11 17:42:00,44.0,42.0,29.64,SE,136,3.0,11.0,94,0.00,,,1.08,,2013-04-11 21:42:00,
2013-04-11 17:53:00,44.0,42.0,29.63,SE,132,4.0,10.0,94,0.01,,,1.09,,2013-04-11 21:53:00,
2013-04-11 18:03:00,44.0,43.0,29.64,SE,139,3.0,9.0,95,0.03,,,1.11,,2013-04-11 22:03:00,
2013-04-11 18:13:00,44.0,43.0,29.64,SE,139,3.0,9.0,95,0.03,,,1.11,,2013-04-11 22:13:00,
2013-04-11 18:23:00,44.0,43.0,29.64,SE,139,3.0,8.0,95,0.05,,,1.12,,2013-04-11 22:23:00,
2013-04-11 18:33:00,44.0,43.0,29.64,SE,144,1.0,7.0,95,0.10,,,1.18,,2013-04-11 22:33:00,
2013-04-11 18:44:00,44.0,43.0,29.64,SE,144,1.0,7.0,95,0.10,,,1.18,,2013-04-11 22:44:00,
2013-04-11 18:52:00,44.0,43.0,29.64,SE,140,2.0,5.0,95,0.10,,,1.19,,2013-04-11 22:52:00,
2013-04-11 19:03:00,44.0,43.0,29.62,East,84,2.0,9.0,95,0.10,,,1.22,,2013-04-11 23:03:00,
2013-04-11 19:12:00,44.0,43.0,29.62,East,84,2.0,9.0,95,0.10,,,1.22,,2013-04-11 23:12:00,
2013-04-11 19:23:00,43.0,42.0,29.63,ESE,105,2.0,8.0,95,0.10,,,1.23,,2013-04-11 23:23:00,
2013-04-11 19:32:00,43.0,42.0,29.63,East,100,2.0,6.0,95,0.07,,,1.25,,2013-04-11 23:32:00,
2013-04-11 19:42:00,43.0,42.0,29.63,East,100,2.0,6.0,95,0.07,,,1.25,,2013-04-11 23:42:00,
2013-04-11 19:53:00,43.0,42.0,29.63,SE,128,2.0,7.0,95,0.09,,,1.28,,2013-04-11 23:53:00,
2013-04-11 20:02:00,43.0,42.0,29.63,ENE,77,2.0,5.0,95,0.09,,,1.31,,2013-04-12 00:02:00,
2013-04-11 20:12:00,43.0,42.0,29.63,ENE,77,2.0,5.0,95,0.09,,,1.31,,2013-04-12 00:12:00,
2013-04-11 20:22:00,43.0,42.0,29.62,ESE,120,2.0,9.0,95,0.10,,,1.31,,2013-04-12 00:22:00,
2013-04-11 20:32:00,43.0,42.0,29.63,ENE,68,2.0,9.0,95,0.09,,,1.32,,2013-04-12 00:32:00,
2013-04-11 20:42:00,43.0,42.0,29.63,ENE,68,2.0,9.0,95,0.09,,,1.32,,2013-04-12 00:42:00,
2013-04-11 20:52:00,42.0,41.0,29.62,East,85,1.0,7.0,95,0.06,,,1.32,,2013-04-12 00:52:00,
2013-04-11 21:02:00,42.0,41.0,29.61,ESE,106,1.0,5.0,95,0.04,,,1.33,,2013-04-12 01:02:00,
2013-04-11 21:12:00,42.0,41.0,29.61,ESE,106,1.0,5.0,95,0.04,,,1.33,,2013-04-12 01:12:00,
2013-04-11 21:22:00,42.0,41.0,29.61,ESE,107,2.0,7.0,95,0.02,,,1.33,,2013-04-12 01:22:00,
2013-04-11 21:32:00,42.0,41.0,29.61,ESE,107,2.0,7.0,95,0.02,,,1.33,,2013-04-12 01:32:00,
2013-04-11 21:42:00,42.0,41.0,29.61,ESE,107,2.0,7.0,95,0.02,,,1.33,,2013-04-12 01:42:00,
2013-04-11 21:52:00,42.0,40.0,29.61,ESE,123,1.0,7.0,94,0.02,,,1.34,,2013-04-12 01:52:00,
2013-04-11 22:03:00,42.0,40.0,29.61,SE,128,2.0,7.0,94,0.02,,,1.35,,2013-04-12 02:03:00,
2013-04-11 22:12:00,42.0,40.0,29.61,SE,128,2.0,7.0,94,0.02,,,1.35,,2013-04-12 02:12:00,
2013-04-11 22:22:00,42.0,41.0,29.61,ESE,104,1.0,7.0,95,0.03,,,1.36,,2013-04-12 02:22:00,
2013-04-11 22:32:00,42.0,41.0,29.60,ESE,113,2.0,6.0,95,0.02,,,1.36,,2013-04-12 02:32:00,
2013-04-11 22:42:00,42.0,41.0,29.60,ESE,113,2.0,6.0,95,0.02,,,1.36,,2013-04-12 02:42:00,
2013-04-11 22:52:00,42.0,40.0,29.61,SE,125,2.0,9.0,94,0.02,,,1.36,,2013-04-12 02:52:00,
2013-04-11 23:02:00,41.0,39.0,29.60,ESE,103,2.0,7.0,94,0.02,,,1.37,,2013-04-12 03:02:00,
2013-04-11 23:12:00,41.0,39.0,29.60,ESE,103,2.0,7.0,94,0.02,,,1.37,,2013-04-12 03:12:00,
2013-04-11 23:22:00,41.0,39.0,29.61,ESE,109,1.0,9.0,94,0.01,,,1.37,,2013-04-12 03:22:00,
2013-04-11 23:33:00,41.0,39.0,29.60,East,97,1.0,5.0,94,0.02,,,1.38,,2013-04-12 03:33:00,
2013-04-11 23:43:00,41.0,39.0,29.60,East,97,1.0,5.0,94,0.02,,,1.38,,2013-04-12 03:43:00,
2013-04-11 23:52:00,41.0,40.0,29.60,ESE,115,0.0,3.0,95,0.03,,,1.39,,2013-04-12 03:52:00,